createdAt,value
2019-05-25T18:05:00.977Z,38.20
2019-05-25T18:07:36.349Z,36.70
2019-05-25T18:10:08.838Z,37.00
2019-05-25T18:12:37.978Z,37.00
2019-05-25T18:15:09.512Z,37.20
2019-05-25T18:17:51.122Z,37.40
2019-05-25T18:20:20.688Z,37.40
2019-05-25T18:22:48.418Z,37.50
2019-05-25T18:25:17.350Z,37.60
2019-05-25T18:27:45.958Z,37.60
2019-05-25T18:30:27.475Z,37.80
2019-05-25T18:32:57.158Z,37.80
2019-05-25T18:35:26.388Z,37.90
2019-05-25T18:37:55.131Z,38.20
2019-05-25T18:40:24.578Z,38.00
2019-05-25T18:42:54.037Z,38.10
2019-05-25T18:45:22.922Z,38.40
2019-05-25T18:47:51.849Z,38.20
2019-05-25T18:50:21.508Z,38.30
2019-05-25T18:52:50.907Z,38.50
2019-05-25T18:55:21.547Z,38.70
2019-05-25T18:57:51.122Z,38.70
2019-05-25T19:00:19.631Z,38.80
2019-05-25T19:02:48.926Z,39.20
2019-05-25T19:05:16.926Z,39.10
2019-05-25T19:07:45.990Z,39.40
2019-05-25T19:10:13.954Z,39.50
2019-05-25T19:12:43.052Z,39.70
2019-05-25T19:15:11.728Z,40.20
2019-05-25T19:17:41.125Z,40.30
2019-05-25T19:20:10.060Z,40.20
2019-05-25T19:22:45.557Z,40.50
2019-05-25T19:25:14.556Z,40.50
2019-05-25T19:27:44.080Z,40.50
2019-05-25T19:30:13.068Z,40.50
2019-05-25T19:32:42.373Z,40.50
2019-05-25T19:35:12.294Z,40.50
2019-05-25T19:37:42.688Z,40.60
2019-05-25T19:40:13.040Z,40.70
2019-05-25T19:42:54.007Z,40.80
2019-05-25T19:45:38.982Z,40.70
2019-05-25T19:48:08.114Z,40.80
2019-05-25T19:50:36.928Z,40.80
2019-05-25T19:53:06.035Z,40.90
2019-05-25T19:55:34.598Z,40.80
2019-05-25T19:58:03.805Z,41.00
2019-05-25T20:00:32.609Z,41.40
2019-05-25T20:03:01.442Z,41.00
2019-05-25T20:05:30.220Z,40.80
2019-05-25T20:08:19.480Z,40.90
2019-05-25T20:10:56.011Z,41.00
2019-05-25T20:13:24.553Z,41.00
2019-05-25T20:16:09.015Z,40.90
2019-05-25T20:18:38.180Z,41.10
2019-05-25T20:21:12.130Z,41.10
2019-05-25T20:23:41.234Z,41.10
2019-05-25T20:26:09.993Z,41.10
2019-05-25T20:31:13.638Z,41.20
2019-05-25T20:33:42.471Z,41.20
2019-05-25T20:36:16.859Z,41.20
2019-05-25T20:38:46.014Z,40.80
2019-05-25T20:41:28.753Z,41.20
2019-05-25T20:43:45.956Z,41.30
2019-05-25T20:46:15.113Z,41.30
2019-05-25T20:48:43.399Z,41.50
2019-05-25T20:51:12.563Z,41.50
2019-05-25T20:53:42.006Z,41.40
2019-05-25T20:56:11.603Z,41.40
2019-05-25T20:58:39.676Z,41.50
2019-05-25T21:01:08.668Z,41.40
2019-05-25T21:03:37.657Z,41.40
2019-05-25T21:06:06.651Z,41.50
2019-05-25T21:08:35.641Z,41.50
2019-05-25T21:11:04.514Z,41.80
2019-05-25T21:13:33.632Z,42.10
2019-05-25T21:16:02.009Z,41.50
2019-05-25T21:18:31.306Z,41.50
2019-05-25T21:21:02.274Z,41.70
2019-05-25T21:23:32.091Z,41.90
2019-05-25T21:26:01.521Z,41.70
2019-05-25T21:28:30.665Z,41.90
2019-05-25T21:30:58.552Z,42.00
2019-05-25T21:33:29.756Z,42.00
2019-05-25T21:36:08.157Z,42.10
2019-05-25T21:38:30.037Z,42.20
2019-05-25T21:40:59.179Z,42.00
2019-05-25T21:43:28.754Z,42.10
2019-05-25T21:45:57.902Z,42.20
2019-05-25T21:48:26.929Z,42.40
2019-05-25T22:04:22.366Z,42.10
2019-05-25T22:06:52.659Z,42.40
2019-05-25T22:09:22.863Z,42.80
2019-05-25T22:11:54.580Z,43.20
2019-05-25T22:14:29.072Z,43.60
2019-05-25T22:16:59.137Z,44.00
2019-05-25T22:19:29.143Z,44.00
2019-05-25T22:21:59.193Z,44.20
2019-05-25T22:24:29.306Z,44.20
2019-05-25T22:26:59.292Z,44.40
2019-05-25T22:29:29.364Z,44.50
2019-05-25T22:32:03.690Z,44.80
2019-05-25T22:34:37.202Z,44.80
2019-05-25T22:37:02.909Z,44.90
2019-05-25T22:39:32.926Z,44.80
2019-05-25T22:42:02.912Z,44.80
2019-05-25T22:44:33.466Z,45.70
2019-05-25T22:47:03.846Z,45.80
2019-05-25T22:49:33.995Z,45.80
2019-05-25T22:52:04.008Z,45.00
2019-05-25T22:54:34.023Z,43.80
2019-05-25T22:57:05.150Z,43.30
2019-05-25T22:59:38.406Z,43.40
2019-05-25T23:02:08.583Z,43.40
2019-05-25T23:04:39.472Z,43.50
2019-05-25T23:07:09.427Z,43.60
2019-05-25T23:09:41.700Z,43.70
2019-05-25T23:12:23.345Z,43.80
2019-05-25T23:14:57.558Z,43.90
2019-05-25T23:17:27.527Z,44.00
2019-05-25T23:19:57.521Z,44.10
2019-05-25T23:22:27.541Z,44.20
2019-05-25T23:24:57.715Z,44.20
2019-05-25T23:27:27.770Z,44.30
2019-05-25T23:29:57.748Z,44.40
2019-05-25T23:32:27.838Z,44.50
2019-05-25T23:34:57.805Z,44.60
2019-05-25T23:40:25.445Z,44.70
2019-05-25T23:42:55.833Z,44.70
2019-05-25T23:45:25.803Z,44.80
2019-05-25T23:47:55.867Z,44.90
2019-05-25T23:50:25.909Z,44.90
2019-05-25T23:52:55.879Z,45.00
2019-05-25T23:55:26.184Z,45.00
2019-05-25T23:57:56.345Z,45.00
